TimeCDT,TemperatureF,Dew PointF,Humidity,Sea Level PressureIn,VisibilityMPH,Wind Direction,Wind SpeedMPH,Gust SpeedMPH,PrecipitationIn,Events,Conditions,WindDirDegrees,DateUTC
12:53 AM,55.0,50.0,83,-9999,10.0,SSE,8.1,-,N/A,,Partly Cloudy,150,2013-05-26 05:53:00
1:53 AM,57.9,48.9,72,-9999,10.0,SSE,16.1,24.2,N/A,,Overcast,160,2013-05-26 06:53:00
2:53 AM,55.9,48.9,77,-9999,10.0,SE,13.8,-,N/A,,Overcast,140,2013-05-26 07:53:00
3:53 AM,55.9,48.0,75,-9999,10.0,SE,13.8,-,N/A,,Overcast,130,2013-05-26 08:53:00
4:53 AM,55.9,46.9,72,-9999,10.0,SE,15.0,-,N/A,,Overcast,130,2013-05-26 09:53:00
5:19 AM,55.4,46.4,72,-9999,10.0,SE,18.4,-,N/A,,Overcast,140,2013-05-26 10:19:00
5:53 AM,55.9,46.9,72,30.09,10.0,SSE,20.7,26.5,N/A,,Overcast,150,2013-05-26 10:53:00
6:53 AM,55.0,46.0,72,30.09,10.0,SE,12.7,-,N/A,,Overcast,130,2013-05-26 11:53:00
7:53 AM,55.0,46.9,74,30.10,10.0,ESE,13.8,-,N/A,,Overcast,120,2013-05-26 12:53:00
8:53 AM,57.0,46.9,69,30.10,10.0,SE,15.0,-,N/A,,Overcast,130,2013-05-26 13:53:00
9:53 AM,57.9,46.9,67,30.09,10.0,SE,18.4,-,N/A,,Overcast,140,2013-05-26 14:53:00
10:53 AM,59.0,46.9,64,30.07,10.0,SSE,17.3,25.3,N/A,,Overcast,150,2013-05-26 15:53:00
11:53 AM,61.0,48.0,62,30.07,10.0,SE,17.3,26.5,N/A,,Overcast,130,2013-05-26 16:53:00
12:53 PM,62.1,46.9,58,30.06,10.0,SE,21.9,28.8,N/A,,Overcast,140,2013-05-26 17:53:00
1:53 PM,61.0,46.0,58,30.06,10.0,SSE,19.6,26.5,N/A,,Overcast,150,2013-05-26 18:53:00
2:53 PM,62.1,46.9,58,30.06,10.0,South,15.0,-,N/A,,Overcast,180,2013-05-26 19:53:00
3:53 PM,61.0,46.9,60,30.06,10.0,South,11.5,-,N/A,,Overcast,170,2013-05-26 20:53:00
4:53 PM,60.1,48.0,64,30.05,10.0,South,9.2,-,N/A,,Overcast,170,2013-05-26 21:53:00
5:53 PM,60.1,48.0,64,30.04,10.0,South,9.2,-,N/A,,Overcast,170,2013-05-26 22:53:00
6:53 PM,59.0,46.9,64,30.04,10.0,SE,13.8,-,0.00,,Overcast,140,2013-05-26 23:53:00
7:53 PM,57.9,48.0,70,30.03,10.0,SE,5.8,-,N/A,,Overcast,140,2013-05-27 00:53:00
8:53 PM,57.9,48.9,72,30.04,10.0,SE,3.5,-,N/A,,Overcast,140,2013-05-27 01:53:00
9:53 PM,59.0,43.0,55,30.04,10.0,SSE,13.8,19.6,N/A,,Overcast,150,2013-05-27 02:53:00
10:53 PM,57.9,43.0,58,30.02,10.0,SE,12.7,-,N/A,,Overcast,140,2013-05-27 03:53:00